createdAt,value
2022-11-10T00:02:43.850Z,69.85
2022-11-10T00:05:29.845Z,69.41
2022-11-10T00:08:14.956Z,69.74
2022-11-10T00:11:06.530Z,69.68
2022-11-10T00:14:15.270Z,69.76
2022-11-10T00:17:06.846Z,69.85
2022-11-10T00:19:52.582Z,69.81
2022-11-10T00:22:39.222Z,70.03
2022-11-10T00:25:25.490Z,70.06
2022-11-10T00:28:10.863Z,70.08
2022-11-10T00:30:56.084Z,70.22
2022-11-10T00:33:43.702Z,70.23
2022-11-10T00:36:29.200Z,70.04
2022-11-10T00:39:14.691Z,68.98
2022-11-10T00:41:59.956Z,69.44
2022-11-10T00:44:45.452Z,69.20
2022-11-10T00:47:30.774Z,68.88
2022-11-10T00:50:16.111Z,68.49
2022-11-10T00:53:01.366Z,68.88
2022-11-10T00:55:46.653Z,68.50
2022-11-10T00:58:32.013Z,68.34
2022-11-10T01:01:19.286Z,68.00
2022-11-10T01:04:05.136Z,68.48
2022-11-10T01:06:51.940Z,68.41
2022-11-10T01:09:38.228Z,68.53
2022-11-10T01:12:23.106Z,68.59
2022-11-10T01:15:12.002Z,68.36
2022-11-10T01:17:57.293Z,67.98
2022-11-10T01:20:42.716Z,67.66
2022-11-10T01:23:28.179Z,67.81
2022-11-10T01:26:13.575Z,67.84
2022-11-10T01:29:00.123Z,67.82
2022-11-10T01:31:46.098Z,67.44
2022-11-10T01:34:31.498Z,67.27
2022-11-10T01:37:16.799Z,66.91
2022-11-10T01:40:02.507Z,67.17
2022-11-10T01:42:54.718Z,67.24
2022-11-10T01:45:48.934Z,67.42
2022-11-10T01:48:54.259Z,67.08
2022-11-10T01:51:51.201Z,67.38
2022-11-10T01:54:47.083Z,67.11
2022-11-10T01:57:32.935Z,67.03
2022-11-10T02:00:19.035Z,67.04
2022-11-10T02:03:11.535Z,67.62
2022-11-10T02:05:56.969Z,67.73
2022-11-10T02:08:43.266Z,67.29
2022-11-10T02:11:29.363Z,67.30
2022-11-10T02:14:15.744Z,67.51
2022-11-10T02:17:01.076Z,67.80
2022-11-10T02:19:46.453Z,67.78
2022-11-10T02:22:32.276Z,67.29
2022-11-10T02:25:22.381Z,67.43
2022-11-10T02:28:07.994Z,66.76
2022-11-10T02:30:54.002Z,67.13
2022-11-10T02:33:39.674Z,66.51
2022-11-10T02:36:25.024Z,66.66
2022-11-10T02:39:10.387Z,66.61
2022-11-10T02:41:55.686Z,66.52
2022-11-10T02:44:41.763Z,66.47
2022-11-10T02:47:27.222Z,66.57
2022-11-10T02:50:12.516Z,66.16
2022-11-10T02:52:57.803Z,66.10
2022-11-10T02:55:43.312Z,66.16
2022-11-10T02:58:28.589Z,66.10
2022-11-10T03:01:13.963Z,65.89
2022-11-10T03:03:59.275Z,65.95
2022-11-10T03:06:44.536Z,65.81
2022-11-10T03:09:29.954Z,65.56
2022-11-10T03:12:15.217Z,65.46
2022-11-10T03:15:00.566Z,65.28
2022-11-10T03:17:45.942Z,65.91
2022-11-10T03:20:31.439Z,65.57
2022-11-10T03:23:18.274Z,65.35
2022-11-10T03:26:06.901Z,65.18
2022-11-10T03:28:52.369Z,65.77
2022-11-10T03:31:37.684Z,65.33
2022-11-10T03:34:22.917Z,65.42
2022-11-10T03:37:08.154Z,65.58
2022-11-10T03:39:53.356Z,65.00
2022-11-10T03:42:43.282Z,65.35
2022-11-10T03:45:28.918Z,65.13
2022-11-10T03:48:14.202Z,65.17
2022-11-10T03:50:59.539Z,65.33
2022-11-10T03:53:44.718Z,65.33
2022-11-10T03:56:29.940Z,65.10
2022-11-10T03:59:15.288Z,65.46
2022-11-10T04:02:00.675Z,65.24
2022-11-10T04:05:04.444Z,65.53
2022-11-10T04:08:15.934Z,65.47
2022-11-10T04:11:01.412Z,65.28
2022-11-10T04:14:05.331Z,65.76
2022-11-10T04:16:50.681Z,66.10
2022-11-10T04:19:36.127Z,66.06
2022-11-10T04:22:41.317Z,66.13
2022-11-10T04:25:26.890Z,66.33
2022-11-10T04:28:12.175Z,66.50
2022-11-10T04:30:57.511Z,66.24
2022-11-10T04:33:43.620Z,65.91
2022-11-10T04:36:31.261Z,66.26
2022-11-10T04:39:16.442Z,66.20
2022-11-10T04:42:03.079Z,66.41
2022-11-10T04:44:48.755Z,66.39
2022-11-10T04:47:34.021Z,66.50
2022-11-10T04:50:19.374Z,66.29
2022-11-10T04:53:04.579Z,66.05
2022-11-10T04:55:49.901Z,66.09
2022-11-10T04:58:35.190Z,66.58
2022-11-10T05:01:23.365Z,66.65
2022-11-10T05:04:08.535Z,66.59
2022-11-10T05:06:54.150Z,66.60
2022-11-10T05:09:39.807Z,66.92
2022-11-10T05:12:25.459Z,66.96
2022-11-10T05:15:11.089Z,67.03
2022-11-10T05:17:56.795Z,67.14
2022-11-10T05:20:41.961Z,67.16
2022-11-10T05:23:39.333Z,66.81
2022-11-10T05:26:24.701Z,67.06
2022-11-10T05:29:09.811Z,66.86
2022-11-10T05:31:55.135Z,67.10
2022-11-10T05:34:40.403Z,67.30
2022-11-10T05:37:25.752Z,67.42
2022-11-10T05:40:11.249Z,67.23
2022-11-10T05:42:56.295Z,67.26
2022-11-10T05:45:41.590Z,67.65
2022-11-10T05:48:27.011Z,67.47
2022-11-10T05:51:12.403Z,67.59
2022-11-10T05:53:57.800Z,67.44
2022-11-10T05:56:43.150Z,67.79
2022-11-10T05:59:28.330Z,67.92
2022-11-10T06:02:13.649Z,68.25
2022-11-10T06:04:59.143Z,68.23
2022-11-10T06:07:44.427Z,68.10
2022-11-10T06:10:29.878Z,68.24
2022-11-10T06:13:15.050Z,68.27
2022-11-10T06:16:00.628Z,68.29
2022-11-10T06:18:45.766Z,68.11
2022-11-10T06:21:31.103Z,68.45
2022-11-10T06:24:16.408Z,68.74
2022-11-10T06:27:01.868Z,68.89
2022-11-10T06:29:47.140Z,68.79
2022-11-10T06:32:33.930Z,68.98
2022-11-10T06:35:20.362Z,69.04
2022-11-10T06:38:08.247Z,69.00
2022-11-10T06:40:53.755Z,69.75
2022-11-10T06:43:39.404Z,69.74
2022-11-10T06:46:24.849Z,70.13
2022-11-10T06:49:10.133Z,69.96
2022-11-10T06:51:55.374Z,69.89
2022-11-10T06:54:40.645Z,69.65
2022-11-10T06:57:26.004Z,69.70
2022-11-10T07:00:12.043Z,70.65
2022-11-10T07:03:00.421Z,70.74
2022-11-10T07:05:45.762Z,70.58
2022-11-10T07:08:30.911Z,70.56
2022-11-10T07:11:16.438Z,70.88
2022-11-10T07:14:02.127Z,70.68
2022-11-10T07:16:47.390Z,70.84
2022-11-10T07:19:32.720Z,70.89
2022-11-10T07:22:18.308Z,71.07
2022-11-10T07:25:04.236Z,70.49
2022-11-10T07:28:00.507Z,70.42
2022-11-10T07:30:45.565Z,70.47
2022-11-10T07:33:30.872Z,70.17
2022-11-10T07:36:16.134Z,70.00
2022-11-10T07:39:01.576Z,69.89
2022-11-10T07:41:52.123Z,69.86
2022-11-10T07:44:37.786Z,70.12
2022-11-10T07:47:24.377Z,69.70
2022-11-10T07:50:10.836Z,69.88
2022-11-10T07:53:25.841Z,69.73
2022-11-10T07:56:11.091Z,70.02
2022-11-10T07:58:56.514Z,70.53
2022-11-10T08:01:41.981Z,70.75
2022-11-10T08:04:27.072Z,70.36
2022-11-10T08:07:12.450Z,69.87
2022-11-10T08:09:58.280Z,69.36
2022-11-10T08:12:43.652Z,68.60
2022-11-10T08:15:29.933Z,68.24
2022-11-10T08:18:20.710Z,68.06
2022-11-10T08:21:06.737Z,66.72
2022-11-10T08:23:52.404Z,66.61
2022-11-10T08:26:37.711Z,64.68
2022-11-10T08:29:23.234Z,64.76
2022-11-10T08:32:09.039Z,64.29
2022-11-10T08:34:54.448Z,63.35
2022-11-10T08:37:39.912Z,62.56
2022-11-10T08:40:27.958Z,62.54
2022-11-10T08:43:13.977Z,61.64
2022-11-10T08:45:59.582Z,60.94
2022-11-10T08:48:44.916Z,61.12
2022-11-10T08:51:33.677Z,60.36
2022-11-10T08:54:21.502Z,60.25
2022-11-10T08:57:06.928Z,59.61
2022-11-10T08:59:53.520Z,59.46
2022-11-10T09:02:38.882Z,59.00
2022-11-10T09:05:24.351Z,58.72
2022-11-10T09:08:09.770Z,58.54
2022-11-10T09:10:54.890Z,57.45
2022-11-10T09:13:40.140Z,56.94
2022-11-10T09:16:25.542Z,55.88
2022-11-10T09:19:14.245Z,56.39
2022-11-10T09:22:02.019Z,56.28
2022-11-10T09:24:47.343Z,55.27
2022-11-10T09:27:36.338Z,55.58
2022-11-10T09:30:21.464Z,55.13
2022-11-10T09:33:07.262Z,54.90
2022-11-10T09:35:57.107Z,55.24
2022-11-10T09:38:42.492Z,55.24
2022-11-10T09:41:30.140Z,55.68
2022-11-10T09:44:33.698Z,55.12
2022-11-10T09:47:50.555Z,54.66
2022-11-10T09:50:49.897Z,54.42
2022-11-10T09:53:41.325Z,53.91
2022-11-10T09:56:32.906Z,53.75
2022-11-10T09:59:29.615Z,53.36
2022-11-10T10:02:29.865Z,52.98
2022-11-10T10:05:51.640Z,51.37
2022-11-10T10:09:06.857Z,52.03
2022-11-10T10:11:56.159Z,53.16
2022-11-10T10:14:56.928Z,52.39
2022-11-10T10:18:14.339Z,51.69
2022-11-10T10:21:21.498Z,51.91
2022-11-10T10:24:16.488Z,52.76
2022-11-10T10:27:10.912Z,52.48
2022-11-10T10:29:56.233Z,51.23
2022-11-10T10:32:42.605Z,51.61
2022-11-10T10:35:28.518Z,51.86
2022-11-10T10:38:24.839Z,51.61
2022-11-10T10:41:24.653Z,51.38
2022-11-10T10:44:14.546Z,52.13
2022-11-10T10:47:03.117Z,52.32
2022-11-10T10:49:48.419Z,52.49
2022-11-10T10:52:33.731Z,53.88
2022-11-10T10:55:19.056Z,53.75
2022-11-10T10:58:25.036Z,54.06
2022-11-10T11:01:16.667Z,55.37
2022-11-10T11:04:27.492Z,54.77
2022-11-10T11:07:25.643Z,55.85
2022-11-10T11:10:20.785Z,55.73
2022-11-10T11:13:13.499Z,55.33
2022-11-10T11:16:04.594Z,55.36
2022-11-10T11:18:50.733Z,55.72
2022-11-10T11:22:03.108Z,56.04
2022-11-10T11:25:01.446Z,56.00
2022-11-10T11:27:58.920Z,56.17
2022-11-10T11:31:03.510Z,56.39
2022-11-10T11:34:13.855Z,56.59
2022-11-10T11:37:13.069Z,56.91
2022-11-10T11:40:10.757Z,56.96
2022-11-10T11:43:02.595Z,56.79
2022-11-10T11:46:32.847Z,56.32
2022-11-10T11:49:36.724Z,57.03
2022-11-10T11:52:22.223Z,57.06
2022-11-10T11:55:37.003Z,57.63
2022-11-10T11:58:22.844Z,58.29
2022-11-10T12:01:37.191Z,58.12
2022-11-10T12:05:00.652Z,57.35
2022-11-10T12:07:57.763Z,57.85
2022-11-10T12:11:11.282Z,57.70
2022-11-10T12:14:06.379Z,57.27
2022-11-10T12:17:12.919Z,58.25
2022-11-10T12:20:50.042Z,58.57
2022-11-10T12:23:54.008Z,59.25
2022-11-10T12:26:39.553Z,57.68
2022-11-10T12:29:39.974Z,57.44
2022-11-10T12:32:32.519Z,57.27
2022-11-10T12:35:23.650Z,56.79
2022-11-10T12:38:16.860Z,57.84
2022-11-10T12:41:06.975Z,58.09
2022-11-10T12:44:14.749Z,57.54
2022-11-10T12:47:03.503Z,57.09
2022-11-10T12:50:30.801Z,57.50
2022-11-10T12:53:23.258Z,57.23
2022-11-10T12:56:37.005Z,56.92
2022-11-10T12:59:26.751Z,57.65
2022-11-10T13:02:15.124Z,58.06
2022-11-10T13:05:18.988Z,58.20
2022-11-10T13:08:27.525Z,58.89
2022-11-10T13:11:12.778Z,58.36
2022-11-10T13:14:03.332Z,58.02
2022-11-10T13:16:54.520Z,56.84
2022-11-10T13:19:40.123Z,57.70
2022-11-10T13:22:37.079Z,57.30
2022-11-10T13:25:37.842Z,57.93
2022-11-10T13:28:48.232Z,57.82
2022-11-10T13:31:33.721Z,56.22
2022-11-10T13:34:19.032Z,57.12
2022-11-10T13:37:30.122Z,56.64
2022-11-10T13:40:24.595Z,56.91
2022-11-10T13:43:25.452Z,57.09
2022-11-10T13:46:11.082Z,57.16
2022-11-10T13:49:15.811Z,57.64
2022-11-10T13:52:08.289Z,58.17
2022-11-10T13:55:15.960Z,57.05
2022-11-10T13:58:01.959Z,57.97
2022-11-10T14:01:11.681Z,57.84
2022-11-10T14:04:00.675Z,58.06
2022-11-10T14:06:51.664Z,58.44
2022-11-10T14:09:40.089Z,58.57
2022-11-10T14:12:44.447Z,58.60
2022-11-10T14:15:46.824Z,58.86
2022-11-10T14:18:49.591Z,58.89
2022-11-10T14:21:53.971Z,58.29
2022-11-10T14:25:01.984Z,58.46
2022-11-10T14:27:47.515Z,58.86
2022-11-10T14:30:33.741Z,59.05
2022-11-10T14:33:21.415Z,58.09
2022-11-10T14:36:09.228Z,59.03
2022-11-10T14:38:54.820Z,58.46
2022-11-10T14:41:51.276Z,57.80
2022-11-10T14:44:36.861Z,58.63
2022-11-10T14:47:25.227Z,58.82
2022-11-10T14:50:13.511Z,59.50
2022-11-10T14:53:19.346Z,58.19
2022-11-10T14:56:07.075Z,58.81
2022-11-10T14:58:53.308Z,59.03
2022-11-10T15:01:40.911Z,59.26
2022-11-10T15:04:29.451Z,59.01
2022-11-10T15:07:14.988Z,59.22
2022-11-10T15:10:14.515Z,59.30
2022-11-10T15:13:12.223Z,59.88
2022-11-10T15:16:29.853Z,60.02
2022-11-10T15:19:27.562Z,60.10
2022-11-10T15:22:13.821Z,60.59
2022-11-10T15:25:10.715Z,60.54
2022-11-10T15:28:13.259Z,60.49
2022-11-10T15:31:01.771Z,60.66
2022-11-10T15:33:53.527Z,60.77
2022-11-10T15:36:41.919Z,60.94
2022-11-10T15:39:28.191Z,61.35
2022-11-10T15:42:21.380Z,61.23
2022-11-10T15:45:06.814Z,60.87
2022-11-10T15:47:52.511Z,61.06
2022-11-10T15:50:37.777Z,61.42
2022-11-10T15:53:28.603Z,61.77
2022-11-10T15:56:20.257Z,61.56
2022-11-10T15:59:05.701Z,61.81
2022-11-10T16:01:52.265Z,62.21
2022-11-10T16:04:37.706Z,62.45
2022-11-10T16:07:23.733Z,62.26
2022-11-10T16:10:09.298Z,62.60
2022-11-10T16:12:55.131Z,62.55
2022-11-10T16:15:41.296Z,62.63
2022-11-10T16:18:29.538Z,63.04
2022-11-10T16:21:18.272Z,63.20
2022-11-10T16:24:04.244Z,63.33
2022-11-10T16:26:49.843Z,63.60
2022-11-10T16:29:35.968Z,63.43
2022-11-10T16:32:21.424Z,63.47
2022-11-10T16:35:11.602Z,63.66
2022-11-10T16:37:56.738Z,64.04
2022-11-10T16:40:42.038Z,63.87
2022-11-10T16:43:28.430Z,63.86
2022-11-10T16:46:19.540Z,63.89
2022-11-10T16:49:08.694Z,64.06
2022-11-10T16:51:56.358Z,64.33
2022-11-10T16:54:43.599Z,64.32
2022-11-10T16:57:33.426Z,64.67
2022-11-10T17:00:24.053Z,64.92
2022-11-10T17:03:18.576Z,65.09
2022-11-10T17:06:07.032Z,65.41
2022-11-10T17:08:54.982Z,65.43
2022-11-10T17:11:41.546Z,65.56
2022-11-10T17:14:26.666Z,65.75
2022-11-10T17:17:18.519Z,65.99
2022-11-10T17:20:05.027Z,66.06
2022-11-10T17:22:51.055Z,66.31
2022-11-10T17:25:36.622Z,66.24
2022-11-10T17:28:23.330Z,66.48
2022-11-10T17:31:12.358Z,66.55
2022-11-10T17:34:00.201Z,66.66
2022-11-10T17:36:51.732Z,66.52
2022-11-10T17:39:42.642Z,66.81
2022-11-10T17:42:30.581Z,66.21
2022-11-10T17:45:29.026Z,65.81
2022-11-10T17:48:15.757Z,66.26
2022-11-10T17:51:02.895Z,66.26
2022-11-10T17:53:51.612Z,65.71
2022-11-10T17:56:38.768Z,65.66
2022-11-10T17:59:25.641Z,65.59
2022-11-10T18:02:13.037Z,65.18
2022-11-10T18:04:59.901Z,64.88
2022-11-10T18:07:53.913Z,64.25
2022-11-10T18:10:52.101Z,64.27
2022-11-10T18:13:39.438Z,64.40
2022-11-10T18:16:36.655Z,64.32
2022-11-10T18:19:24.274Z,64.24
2022-11-10T18:22:11.623Z,63.65
2022-11-10T18:24:58.393Z,63.63
2022-11-10T18:27:45.325Z,63.32
2022-11-10T18:30:35.044Z,62.80
2022-11-10T18:33:23.641Z,63.38
2022-11-10T18:36:13.646Z,63.34
2022-11-10T18:39:00.143Z,63.05
2022-11-10T18:41:49.941Z,62.80
2022-11-10T18:44:37.783Z,63.02
2022-11-10T18:47:24.584Z,62.74
2022-11-10T18:50:11.644Z,62.82
2022-11-10T18:53:03.282Z,62.50
2022-11-10T18:55:57.450Z,62.66
2022-11-10T18:58:44.138Z,62.66
2022-11-10T19:01:31.700Z,62.61
2022-11-10T19:04:19.170Z,62.70
2022-11-10T19:07:06.976Z,61.94
2022-11-10T19:09:54.849Z,61.64
2022-11-10T19:12:41.900Z,62.19
2022-11-10T19:15:29.133Z,62.06
2022-11-10T19:18:17.149Z,62.52
2022-11-10T19:21:13.321Z,62.17
2022-11-10T19:24:00.669Z,62.06
2022-11-10T19:26:51.948Z,61.91
2022-11-10T19:29:38.758Z,62.61
2022-11-10T19:32:25.557Z,62.85
2022-11-10T19:35:14.599Z,62.76
2022-11-10T19:38:02.607Z,62.76
2022-11-10T19:40:50.217Z,62.21
2022-11-10T19:43:36.367Z,62.11
2022-11-10T19:46:29.561Z,62.49
2022-11-10T19:49:17.915Z,63.50
2022-11-10T19:52:05.168Z,63.70
2022-11-10T19:54:53.162Z,63.73
2022-11-10T19:57:38.438Z,63.60
2022-11-10T20:00:25.836Z,63.89
2022-11-10T20:03:11.599Z,63.52
2022-11-10T20:06:02.157Z,63.99
2022-11-10T20:08:48.725Z,64.20
2022-11-10T20:11:34.363Z,63.91
2022-11-10T20:14:25.498Z,63.61
2022-11-10T20:17:11.037Z,63.69
2022-11-10T20:19:57.450Z,63.55
2022-11-10T20:22:42.843Z,63.89
2022-11-10T20:25:36.414Z,63.74
2022-11-10T20:28:23.149Z,63.76
2022-11-10T20:31:11.273Z,63.97
2022-11-10T20:33:56.831Z,64.20
2022-11-10T20:36:42.259Z,64.49
2022-11-10T20:39:27.488Z,64.22
2022-11-10T20:42:13.569Z,64.08
2022-11-10T20:44:59.204Z,64.44
2022-11-10T20:47:44.616Z,64.27
2022-11-10T20:50:30.001Z,64.49
2022-11-10T20:53:15.472Z,64.52
2022-11-10T20:56:02.215Z,64.93
2022-11-10T20:58:47.870Z,65.02
2022-11-10T21:01:33.822Z,65.32
2022-11-10T21:04:19.499Z,65.08
2022-11-10T21:07:05.274Z,65.25
2022-11-10T21:09:50.861Z,65.11
2022-11-10T21:12:51.439Z,65.08
2022-11-10T21:15:39.378Z,64.79
2022-11-10T21:18:26.844Z,64.89
2022-11-10T21:21:20.967Z,65.06
2022-11-10T21:24:07.288Z,65.08
2022-11-10T21:26:52.290Z,64.92
2022-11-10T21:29:38.022Z,64.97
2022-11-10T21:32:23.450Z,64.82
2022-11-10T21:35:09.120Z,64.84
2022-11-10T21:37:54.469Z,64.82
2022-11-10T21:40:39.927Z,64.85
2022-11-10T21:43:25.483Z,64.69
2022-11-10T21:46:11.323Z,64.66
2022-11-10T21:48:56.692Z,64.60
2022-11-10T21:51:42.783Z,65.00
2022-11-10T21:54:28.020Z,65.10
2022-11-10T21:57:13.442Z,65.49
2022-11-10T21:59:58.882Z,65.83
2022-11-10T22:02:44.388Z,65.99
2022-11-10T22:05:29.804Z,65.67
2022-11-10T22:08:18.402Z,66.22
2022-11-10T22:11:35.375Z,66.05
2022-11-10T22:14:39.272Z,66.26
2022-11-10T22:17:43.563Z,66.12
2022-11-10T22:20:29.469Z,66.24
2022-11-10T22:23:14.961Z,66.28
2022-11-10T22:26:00.416Z,66.36
2022-11-10T22:28:46.002Z,66.23
2022-11-10T22:31:33.190Z,65.88
2022-11-10T22:34:19.189Z,66.11
2022-11-10T22:37:04.397Z,65.94
2022-11-10T22:40:08.319Z,65.79
2022-11-10T22:43:12.099Z,65.78
2022-11-10T22:45:57.521Z,65.76
2022-11-10T22:48:43.920Z,65.96
2022-11-10T22:51:30.488Z,65.98
2022-11-10T22:54:20.560Z,65.80
2022-11-10T22:57:05.553Z,66.37
2022-11-10T22:59:51.056Z,66.24
2022-11-10T23:02:36.198Z,66.44
2022-11-10T23:05:21.687Z,66.95
2022-11-10T23:08:07.468Z,66.90
2022-11-10T23:11:04.647Z,67.15
2022-11-10T23:13:51.218Z,67.38
2022-11-10T23:16:36.697Z,67.19
2022-11-10T23:19:21.933Z,67.34
2022-11-10T23:22:07.279Z,67.22
2022-11-10T23:24:56.959Z,67.64
2022-11-10T23:27:43.057Z,67.35
2022-11-10T23:30:28.344Z,67.49
2022-11-10T23:33:13.550Z,67.50
2022-11-10T23:35:58.847Z,67.38
2022-11-10T23:38:45.029Z,67.21
2022-11-10T23:41:30.713Z,67.40
2022-11-10T23:44:18.975Z,67.41
2022-11-10T23:47:04.230Z,67.14
2022-11-10T23:49:49.663Z,67.27
2022-11-10T23:52:34.926Z,67.12
2022-11-10T23:55:20.356Z,67.07
2022-11-10T23:58:05.490Z,67.40
